Time;durP1;ratioP1;P1;durP2;ratioP2;P2;SDS_P1;SDS_P2;PMS_P1;PMS_P2;Temp;Humidity;BMP_temperature;BMP_pressure;BME280_temperature;BME280_humidity;BME280_pressure;Samples;Min_cycle;Max_cycle;Signal;HPM_P1;HPM_P2
2021/08/20 00:01:04;;;;;;;42.73;31.07;;;;;;;;;;5033616;28;20441;-62
2021/08/20 00:03:32;;;;;;;36.70;27.40;;;;;;;;;;5033383;28;20441;-62
2021/08/20 00:05:59;;;;;;;37.33;27.80;;;;;;;;;;5033289;28;20468;-62
2021/08/20 00:08:26;;;;;;;36.43;28.90;;;;;;;;;;5033086;28;20937;-62
2021/08/20 00:10:55;;;;;;;36.87;28.17;;;;;;;;;;5033381;28;20449;-61
2021/08/20 00:13:22;;;;;;;34.47;27.70;;;;;;;;;;5032923;28;20573;-62
2021/08/20 00:15:49;;;;;;;35.30;26.80;;;;;;;;;;5032813;28;20465;-62
2021/08/20 00:18:16;;;;;;;33.30;27.23;;;;;;;;;;5033248;28;20456;-62
2021/08/20 00:20:44;;;;;;;33.80;27.87;;;;;;;;;;5032867;28;20870;-63
2021/08/20 00:23:11;;;;;;;34.43;27.30;;;;;;;;;;5033252;28;20495;-62
2021/08/20 00:25:38;;;;;;;34.80;27.83;;;;;;;;;;5038136;28;20480;-63
2021/08/20 00:28:07;;;;;;;30.10;24.63;;;;;;;;;;5037171;28;20448;-62
2021/08/20 00:30:34;;;;;;;31.37;24.97;;;;;;;;;;5037149;28;20445;-60
2021/08/20 00:33:01;;;;;;;32.33;25.10;;;;;;;;;;5036741;28;20534;-62
2021/08/20 00:35:29;;;;;;;31.77;25.13;;;;;;;;;;5037015;28;20510;-62
2021/08/20 00:37:56;;;;;;;30.83;25.17;;;;;;;;;;5037128;28;20498;-62
2021/08/20 00:40:23;;;;;;;28.43;25.30;;;;;;;;;;5037107;28;20506;-62
2021/08/20 00:42:51;;;;;;;28.73;24.37;;;;;;;;;;5037233;28;20522;-62
2021/08/20 00:45:19;;;;;;;31.83;23.73;;;;;;;;;;5036816;28;20873;-61
2021/08/20 00:47:46;;;;;;;29.20;23.50;;;;;;;;;;5037117;28;20452;-62
2021/08/20 00:50:14;;;;;;;31.40;23.37;;;;;;;;;;5036637;28;20499;-62
2021/08/20 00:52:41;;;;;;;28.20;22.30;;;;;;;;;;5036804;28;20449;-62
2021/08/20 00:55:10;;;;;;;23.70;20.03;;;;;;;;;;5036606;28;20527;-61
2021/08/20 00:57:37;;;;;;;24.33;21.73;;;;;;;;;;5036808;28;20877;-61
2021/08/20 01:00:05;;;;;;;27.57;21.53;;;;;;;;;;5036836;28;20502;-61
2021/08/20 01:02:34;;;;;;;30.23;21.23;;;;;;;;;;5036282;28;20957;-61
2021/08/20 01:05:01;;;;;;;23.53;20.33;;;;;;;;;;5036169;28;20518;-62
2021/08/20 01:07:28;;;;;;;27.57;22.80;;;;;;;;;;5036545;28;20448;-62
2021/08/20 01:09:56;;;;;;;26.00;22.03;;;;;;;;;;5036200;28;21023;-62
2021/08/20 01:12:23;;;;;;;24.40;21.43;;;;;;;;;;5036590;28;20449;-62
2021/08/20 01:14:52;;;;;;;25.93;23.20;;;;;;;;;;5036392;28;20488;-63
2021/08/20 01:17:19;;;;;;;29.03;22.90;;;;;;;;;;5037534;28;20807;-63
2021/08/20 01:19:48;;;;;;;29.10;24.13;;;;;;;;;;5036383;28;20859;-61
2021/08/20 01:22:15;;;;;;;32.23;25.63;;;;;;;;;;5036507;28;20488;-62
2021/08/20 01:24:43;;;;;;;31.37;24.57;;;;;;;;;;5035836;28;20522;-63
2021/08/20 01:27:12;;;;;;;30.73;26.00;;;;;;;;;;5036189;28;20449;-61
2021/08/20 01:29:40;;;;;;;27.17;22.90;;;;;;;;;;5036386;28;20897;-61
2021/08/20 01:32:08;;;;;;;23.67;21.10;;;;;;;;;;5035960;28;20957;-61
2021/08/20 01:34:35;;;;;;;23.23;20.77;;;;;;;;;;5035379;28;21005;-61
2021/08/20 01:37:02;;;;;;;20.67;18.43;;;;;;;;;;5035213;28;20938;-62
2021/08/20 01:39:30;;;;;;;19.70;16.90;;;;;;;;;;5035738;28;21138;-61
2021/08/20 01:41:57;;;;;;;22.07;17.57;;;;;;;;;;5035583;28;20453;-62
2021/08/20 01:44:26;;;;;;;19.97;17.20;;;;;;;;;;5035598;28;20469;-61
2021/08/20 01:46:53;;;;;;;19.80;17.30;;;;;;;;;;5036051;28;20452;-62
2021/08/20 01:49:21;;;;;;;20.03;17.93;;;;;;;;;;5036132;28;20886;-62
2021/08/20 01:51:48;;;;;;;22.00;17.80;;;;;;;;;;5036016;28;20461;-62
2021/08/20 01:54:15;;;;;;;20.07;17.97;;;;;;;;;;5038274;28;20558;-62
2021/08/20 01:56:42;;;;;;;19.67;17.57;;;;;;;;;;5036506;28;20445;-62
2021/08/20 01:59:10;;;;;;;21.47;17.63;;;;;;;;;;5036108;28;20499;-61
2021/08/20 02:01:38;;;;;;;22.80;18.83;;;;;;;;;;5036295;28;20934;-62
2021/08/20 02:04:06;;;;;;;23.60;19.47;;;;;;;;;;5035932;28;20437;-62
2021/08/20 02:06:33;;;;;;;20.50;18.30;;;;;;;;;;5035554;28;20441;-61
2021/08/20 02:09:01;;;;;;;23.07;20.37;;;;;;;;;;5035876;28;20480;-61
2021/08/20 02:11:28;;;;;;;23.90;20.03;;;;;;;;;;5035045;28;20945;-61
2021/08/20 02:13:55;;;;;;;23.97;19.87;;;;;;;;;;5035114;28;20530;-61
2021/08/20 02:16:23;;;;;;;26.17;21.27;;;;;;;;;;5035249;28;20514;-61
2021/08/20 02:18:51;;;;;;;22.33;19.90;;;;;;;;;;5034905;28;20507;-62
2021/08/20 02:21:18;;;;;;;26.50;22.93;;;;;;;;;;5035169;28;20861;-61
2021/08/20 02:23:46;;;;;;;25.10;21.50;;;;;;;;;;5034806;28;21005;-61
2021/08/20 02:26:13;;;;;;;26.90;23.20;;;;;;;;;;5034599;28;20544;-62
2021/08/20 02:28:40;;;;;;;31.67;22.80;;;;;;;;;;5035177;28;20503;-62
2021/08/20 02:31:07;;;;;;;28.40;23.60;;;;;;;;;;5034937;28;20522;-62
2021/08/20 02:33:35;;;;;;;24.67;22.00;;;;;;;;;;5034602;28;20824;-62
2021/08/20 02:36:06;;;;;;;26.03;22.57;;;;;;;;;;5034583;28;20515;-62
2021/08/20 02:38:33;;;;;;;27.87;24.83;;;;;;;;;;5034930;28;20429;-62
2021/08/20 02:41:00;;;;;;;30.77;25.10;;;;;;;;;;5034859;28;20445;-61
2021/08/20 02:43:28;;;;;;;34.37;24.50;;;;;;;;;;5034772;28;20866;-62
2021/08/20 02:45:56;;;;;;;30.33;26.00;;;;;;;;;;5034380;28;20469;-62
2021/08/20 02:48:23;;;;;;;33.73;25.10;;;;;;;;;;5033605;28;20452;-62
2021/08/20 02:50:50;;;;;;;27.17;24.10;;;;;;;;;;5034631;28;20449;-61
2021/08/20 02:53:19;;;;;;;28.47;24.87;;;;;;;;;;5034475;28;20449;-62
2021/08/20 02:55:46;;;;;;;29.67;25.03;;;;;;;;;;5034454;28;20523;-62
2021/08/20 02:58:14;;;;;;;26.43;23.53;;;;;;;;;;5034500;28;20499;-62
2021/08/20 03:00:41;;;;;;;26.43;22.97;;;;;;;;;;5034391;28;20627;-62
2021/08/20 03:03:08;;;;;;;31.37;26.17;;;;;;;;;;5034114;28;21029;-62
2021/08/20 03:05:36;;;;;;;26.70;23.80;;;;;;;;;;5034350;28;20875;-62
2021/08/20 03:08:03;;;;;;;26.43;23.63;;;;;;;;;;5033978;28;20503;-61
2021/08/20 03:10:32;;;;;;;29.10;25.77;;;;;;;;;;5034058;28;20476;-62
2021/08/20 03:12:59;;;;;;;27.73;23.20;;;;;;;;;;5034191;28;20445;-62
2021/08/20 03:15:27;;;;;;;24.47;21.90;;;;;;;;;;5034346;28;20927;-62
2021/08/20 03:17:54;;;;;;;30.73;23.63;;;;;;;;;;5034559;28;20503;-62
2021/08/20 03:20:21;;;;;;;28.97;23.83;;;;;;;;;;5033933;28;20495;-62
2021/08/20 03:22:49;;;;;;;30.37;23.60;;;;;;;;;;5034180;28;20456;-61
2021/08/20 03:25:16;;;;;;;25.00;22.30;;;;;;;;;;5033599;28;20898;-62
2021/08/20 03:27:45;;;;;;;27.60;23.40;;;;;;;;;;5033628;28;20483;-62
2021/08/20 03:30:12;;;;;;;26.67;23.37;;;;;;;;;;5034025;28;20449;-62
2021/08/20 03:32:39;;;;;;;24.90;21.70;;;;;;;;;;5033737;28;20937;-61
2021/08/20 03:35:07;;;;;;;24.53;21.87;;;;;;;;;;5033346;28;20489;-62
2021/08/20 03:37:39;;;;;;;27.07;22.63;;;;;;;;;;5033780;28;20853;-62
2021/08/20 03:40:07;;;;;;;27.10;22.93;;;;;;;;;;5034012;28;20430;-62
2021/08/20 03:42:34;;;;;;;27.23;22.30;;;;;;;;;;5033955;28;20449;-62
2021/08/20 03:45:03;;;;;;;25.90;22.20;;;;;;;;;;5033511;28;20461;-62
2021/08/20 03:47:30;;;;;;;22.50;20.10;;;;;;;;;;5033886;28;20449;-62
2021/08/20 03:49:57;;;;;;;26.00;21.50;;;;;;;;;;5033395;28;20444;-62
2021/08/20 03:52:24;;;;;;;24.67;20.30;;;;;;;;;;5033262;28;20445;-62
2021/08/20 03:54:51;;;;;;;22.63;19.83;;;;;;;;;;5033367;28;20539;-62
2021/08/20 03:57:19;;;;;;;21.13;18.80;;;;;;;;;;5033619;28;20507;-61
2021/08/20 03:59:46;;;;;;;22.00;18.50;;;;;;;;;;5032941;28;20507;-61
2021/08/20 04:02:14;;;;;;;23.43;20.53;;;;;;;;;;5033599;28;20445;-61
2021/08/20 04:04:42;;;;;;;21.70;18.40;;;;;;;;;;5033609;28;20457;-61
2021/08/20 04:08:28;;;;;;;23.90;20.10;;;;;;;;;;5091653;27;20554;-61
2021/08/20 04:10:55;;;;;;;21.50;18.30;;;;;;;;;;5090702;28;20445;-62
2021/08/20 04:13:23;;;;;;;21.87;17.57;;;;;;;;;;5090996;28;20487;-61
2021/08/20 04:15:50;;;;;;;21.93;19.73;;;;;;;;;;5090644;28;20471;-62
2021/08/20 04:18:17;;;;;;;21.63;18.53;;;;;;;;;;5091009;28;20446;-62
2021/08/20 04:20:44;;;;;;;21.77;18.50;;;;;;;;;;5091601;28;20446;-61
2021/08/20 04:23:12;;;;;;;23.90;19.17;;;;;;;;;;5099946;28;20438;-62
2021/08/20 04:25:40;;;;;;;25.57;18.80;;;;;;;;;;5097871;28;20527;-63
2021/08/20 04:28:07;;;;;;;21.47;19.10;;;;;;;;;;5090944;28;20889;-62
2021/08/20 04:30:35;;;;;;;21.90;18.80;;;;;;;;;;5090538;28;20447;-62
2021/08/20 04:33:03;;;;;;;21.63;18.40;;;;;;;;;;5090649;28;20503;-62
2021/08/20 04:35:30;;;;;;;23.43;20.60;;;;;;;;;;5090200;28;20512;-61
2021/08/20 04:37:58;;;;;;;21.00;18.70;;;;;;;;;;5090771;28;20492;-63
2021/08/20 04:40:25;;;;;;;21.93;19.30;;;;;;;;;;5090795;28;20450;-63
2021/08/20 04:42:54;;;;;;;19.83;17.73;;;;;;;;;;5090966;28;20446;-62
2021/08/20 04:45:21;;;;;;;23.10;20.10;;;;;;;;;;5090837;28;20512;-62
2021/08/20 04:47:49;;;;;;;19.03;17.13;;;;;;;;;;5090766;28;20481;-63
2021/08/20 04:50:18;;;;;;;21.50;18.77;;;;;;;;;;5090342;28;20541;-62
2021/08/20 04:52:45;;;;;;;19.80;17.80;;;;;;;;;;5090328;28;20443;-62
2021/08/20 04:55:12;;;;;;;24.83;18.50;;;;;;;;;;5090130;28;20467;-61
2021/08/20 04:57:40;;;;;;;21.73;18.70;;;;;;;;;;5090671;28;20442;-62
2021/08/20 05:00:10;;;;;;;19.07;16.97;;;;;;;;;;5089858;28;20493;-62
2021/08/20 05:02:37;;;;;;;20.70;18.53;;;;;;;;;;5090043;28;20450;-61
2021/08/20 05:05:06;;;;;;;20.73;18.63;;;;;;;;;;5089687;28;20471;-60
2021/08/20 05:07:35;;;;;;;22.03;18.93;;;;;;;;;;5089591;28;20475;-62
2021/08/20 05:10:05;;;;;;;19.30;17.23;;;;;;;;;;5089954;28;20487;-61
2021/08/20 05:12:33;;;;;;;18.80;16.77;;;;;;;;;;5089958;28;20435;-61
2021/08/20 05:15:00;;;;;;;20.70;17.37;;;;;;;;;;5089701;28;20466;-62
2021/08/20 05:17:29;;;;;;;20.80;18.30;;;;;;;;;;5089568;28;20451;-61
2021/08/20 05:19:56;;;;;;;20.97;18.27;;;;;;;;;;5076308;28;20447;-61
2021/08/20 05:22:23;;;;;;;20.90;17.73;;;;;;;;;;5076061;28;20496;-61
2021/08/20 05:24:51;;;;;;;20.20;17.83;;;;;;;;;;5075905;28;20472;-60
2021/08/20 05:27:18;;;;;;;20.13;17.63;;;;;;;;;;5075640;28;21060;-61
2021/08/20 05:29:45;;;;;;;19.63;17.57;;;;;;;;;;5075977;28;20524;-61
2021/08/20 05:32:12;;;;;;;18.80;16.73;;;;;;;;;;5075663;28;20948;-62
2021/08/20 05:34:41;;;;;;;19.50;17.20;;;;;;;;;;5076077;28;20463;-62
2021/08/20 05:37:08;;;;;;;20.00;17.80;;;;;;;;;;5075489;28;20497;-60
2021/08/20 05:39:35;;;;;;;21.50;17.90;;;;;;;;;;5075684;28;20477;-61
2021/08/20 05:42:03;;;;;;;21.00;17.43;;;;;;;;;;5075587;28;20439;-61
2021/08/20 05:44:30;;;;;;;21.13;17.23;;;;;;;;;;5075269;28;20463;-61
2021/08/20 05:46:57;;;;;;;20.77;18.67;;;;;;;;;;5075475;28;20475;-61
2021/08/20 05:49:25;;;;;;;20.47;17.20;;;;;;;;;;5075406;28;20526;-61
2021/08/20 05:51:54;;;;;;;17.00;15.30;;;;;;;;;;5075426;28;20458;-61
2021/08/20 05:54:21;;;;;;;23.03;17.17;;;;;;;;;;5075415;28;20471;-61
2021/08/20 05:56:48;;;;;;;19.57;16.27;;;;;;;;;;5075381;28;20508;-63
2021/08/20 05:59:16;;;;;;;20.17;15.80;;;;;;;;;;5075442;28;20455;-62
2021/08/20 06:01:43;;;;;;;17.63;15.80;;;;;;;;;;5075577;28;20816;-62
2021/08/20 06:04:10;;;;;;;27.53;17.30;;;;;;;;;;5074742;28;20467;-62
2021/08/20 06:06:38;;;;;;;22.63;15.90;;;;;;;;;;5074938;28;20459;-62
2021/08/20 06:09:07;;;;;;;19.47;16.10;;;;;;;;;;5076209;28;20526;-62
2021/08/20 06:11:34;;;;;;;16.03;14.43;;;;;;;;;;5075042;28;20447;-62
2021/08/20 06:14:02;;;;;;;19.07;14.27;;;;;;;;;;5075174;28;20439;-62
2021/08/20 06:16:29;;;;;;;15.80;13.60;;;;;;;;;;5074889;28;20451;-62
2021/08/20 06:18:56;;;;;;;16.67;14.97;;;;;;;;;;5074882;28;20443;-61
2021/08/20 06:21:23;;;;;;;15.47;13.73;;;;;;;;;;5074548;28;20505;-60
2021/08/20 06:23:51;;;;;;;17.07;13.87;;;;;;;;;;5075378;28;20455;-61
2021/08/20 06:26:19;;;;;;;18.40;13.97;;;;;;;;;;5080552;22;20855;-59
2021/08/20 06:28:46;;;;;;;15.43;13.40;;;;;;;;;;5035892;28;20551;-58
2021/08/20 06:31:14;;;;;;;14.70;13.20;;;;;;;;;;5034272;28;20445;-58
2021/08/20 06:33:41;;;;;;;18.77;13.70;;;;;;;;;;5035604;28;20491;-59
2021/08/20 06:36:08;;;;;;;15.00;12.50;;;;;;;;;;5035604;28;20468;-59
2021/08/20 06:38:35;;;;;;;15.20;13.63;;;;;;;;;;5035052;28;20445;-59
2021/08/20 06:41:03;;;;;;;18.53;14.73;;;;;;;;;;5034752;28;20949;-59
2021/08/20 06:43:31;;;;;;;16.07;12.53;;;;;;;;;;5035122;28;20449;-58
2021/08/20 06:45:59;;;;;;;17.23;12.43;;;;;;;;;;5034714;28;20507;-58
2021/08/20 06:48:26;;;;;;;17.67;13.20;;;;;;;;;;5034881;28;20526;-59
2021/08/20 06:50:53;;;;;;;15.43;13.30;;;;;;;;;;5034433;28;20507;-59
2021/08/20 06:53:20;;;;;;;14.93;13.43;;;;;;;;;;5034435;28;20448;-58
2021/08/20 06:55:48;;;;;;;13.87;12.67;;;;;;;;;;5034661;28;20461;-59
2021/08/20 06:58:15;;;;;;;15.53;13.93;;;;;;;;;;5034239;28;20491;-58
2021/08/20 07:00:43;;;;;;;16.13;13.00;;;;;;;;;;5034812;28;20449;-59
2021/08/20 07:03:11;;;;;;;16.63;14.83;;;;;;;;;;5034761;28;20445;-58
2021/08/20 07:05:38;;;;;;;17.90;13.70;;;;;;;;;;5034786;28;20528;-58
2021/08/20 07:08:07;;;;;;;17.57;14.23;;;;;;;;;;5034541;28;20535;-58
2021/08/20 07:10:34;;;;;;;18.33;14.47;;;;;;;;;;5034831;28;20503;-57
2021/08/20 07:13:01;;;;;;;19.30;14.90;;;;;;;;;;5034876;28;20523;-56
2021/08/20 07:15:29;;;;;;;17.73;13.90;;;;;;;;;;5034475;28;20473;-58
2021/08/20 07:17:58;;;;;;;15.27;13.63;;;;;;;;;;5034865;28;20441;-60
2021/08/20 07:20:25;;;;;;;16.17;14.47;;;;;;;;;;5038191;28;20445;-58
2021/08/20 07:22:52;;;;;;;17.83;16.03;;;;;;;;;;5039395;28;20449;-58
2021/08/20 07:25:20;;;;;;;19.37;15.30;;;;;;;;;;5038360;28;20465;-58
2021/08/20 07:27:47;;;;;;;17.90;15.00;;;;;;;;;;5038894;28;20480;-59
2021/08/20 07:30:15;;;;;;;17.40;14.80;;;;;;;;;;5038454;28;20503;-58
2021/08/20 07:32:43;;;;;;;17.57;14.87;;;;;;;;;;5038155;28;20445;-57
2021/08/20 07:35:12;;;;;;;23.97;15.73;;;;;;;;;;5038127;28;20461;-58
2021/08/20 07:37:39;;;;;;;16.87;14.80;;;;;;;;;;5038377;28;20506;-58
2021/08/20 07:40:07;;;;;;;18.77;14.83;;;;;;;;;;5038419;28;20445;-59
2021/08/20 07:42:34;;;;;;;19.20;15.30;;;;;;;;;;5038070;28;20445;-58
2021/08/20 07:45:01;;;;;;;19.40;13.73;;;;;;;;;;5038599;28;20465;-58
2021/08/20 07:47:28;;;;;;;17.90;14.93;;;;;;;;;;5038918;28;20473;-58
2021/08/20 07:49:56;;;;;;;20.23;16.60;;;;;;;;;;5038630;28;20449;-58
2021/08/20 07:52:24;;;;;;;19.17;15.67;;;;;;;;;;5038292;28;20452;-58
2021/08/20 07:54:52;;;;;;;19.43;16.77;;;;;;;;;;5037546;28;21000;-58
2021/08/20 07:57:19;;;;;;;17.03;15.07;;;;;;;;;;5039061;28;20445;-58
2021/08/20 07:59:47;;;;;;;20.40;16.60;;;;;;;;;;5038181;28;20449;-58
2021/08/20 08:02:14;;;;;;;20.17;16.63;;;;;;;;;;5037645;28;20871;-58
2021/08/20 08:04:42;;;;;;;19.80;16.57;;;;;;;;;;5037811;28;20452;-58
2021/08/20 08:07:09;;;;;;;20.20;16.67;;;;;;;;;;5038794;28;20445;-58
2021/08/20 08:09:38;;;;;;;19.50;14.90;;;;;;;;;;5038542;28;20481;-56
2021/08/20 08:12:06;;;;;;;18.87;15.43;;;;;;;;;;5037788;28;20480;-58
2021/08/20 08:14:33;;;;;;;17.13;15.33;;;;;;;;;;5037287;28;20515;-59
2021/08/20 08:17:00;;;;;;;20.77;16.10;;;;;;;;;;5037540;28;20494;-58
2021/08/20 08:19:27;;;;;;;17.83;16.07;;;;;;;;;;5038112;28;20472;-59
2021/08/20 08:21:55;;;;;;;20.63;17.40;;;;;;;;;;5035211;28;20445;-59
2021/08/20 08:24:22;;;;;;;17.00;15.20;;;;;;;;;;5034292;28;20453;-58
2021/08/20 08:26:50;;;;;;;18.13;16.23;;;;;;;;;;5032371;28;20477;-54
2021/08/20 08:29:18;;;;;;;17.87;15.87;;;;;;;;;;5032698;28;21000;-55
2021/08/20 08:31:45;;;;;;;15.87;13.97;;;;;;;;;;5032934;28;20441;-55
2021/08/20 08:34:12;;;;;;;17.67;15.43;;;;;;;;;;5032873;28;20449;-56
2021/08/20 08:36:40;;;;;;;17.00;14.57;;;;;;;;;;5032689;28;20469;-55
2021/08/20 08:39:07;;;;;;;17.50;15.70;;;;;;;;;;5032880;28;20499;-53
2021/08/20 08:41:34;;;;;;;17.67;15.73;;;;;;;;;;5032805;28;20849;-55
2021/08/20 08:44:03;;;;;;;19.33;15.93;;;;;;;;;;5032362;28;20449;-55
2021/08/20 08:46:32;;;;;;;20.93;16.53;;;;;;;;;;5032739;28;20793;-54
2021/08/20 08:48:59;;;;;;;17.53;14.53;;;;;;;;;;5032122;28;20530;-54
2021/08/20 08:51:27;;;;;;;19.47;16.27;;;;;;;;;;5032620;28;20444;-54
2021/08/20 08:53:54;;;;;;;20.27;16.10;;;;;;;;;;5034257;28;20441;-54
2021/08/20 08:56:22;;;;;;;21.87;14.90;;;;;;;;;;5036512;28;20472;-56
2021/08/20 08:58:49;;;;;;;17.63;15.90;;;;;;;;;;5036419;28;20445;-55
2021/08/20 09:01:28;;;;;;;17.40;15.60;;;;;;;;;;5036253;28;20510;-54
2021/08/20 09:04:07;;;;;;;19.63;16.80;;;;;;;;;;5036370;28;20532;-55
2021/08/20 09:06:38;;;;;;;31.20;15.37;;;;;;;;;;5036054;28;20870;-55
2021/08/20 09:09:06;;;;;;;16.50;14.50;;;;;;;;;;5036363;28;20566;-55
2021/08/20 09:11:33;;;;;;;15.27;13.63;;;;;;;;;;5035862;28;20441;-56
2021/08/20 09:14:00;;;;;;;18.87;13.63;;;;;;;;;;5036245;28;20472;-55
2021/08/20 09:16:36;;;;;;;18.80;13.70;;;;;;;;;;5036019;28;20465;-56
2021/08/20 09:19:14;;;;;;;15.13;13.60;;;;;;;;;;5035952;28;20432;-55
2021/08/20 09:21:41;;;;;;;15.13;13.53;;;;;;;;;;5036122;28;20433;-54
2021/08/20 09:24:27;;;;;;;15.57;13.97;;;;;;;;;;5035245;28;20992;-55
2021/08/20 09:26:54;;;;;;;14.53;12.93;;;;;;;;;;5035505;28;20519;-55
2021/08/20 09:29:22;;;;;;;16.23;12.47;;;;;;;;;;5036002;28;20506;-55
2021/08/20 09:31:54;;;;;;;12.53;11.00;;;;;;;;;;5035585;28;20544;-55
2021/08/20 09:34:21;;;;;;;12.87;10.73;;;;;;;;;;5035791;28;20453;-55
2021/08/20 09:36:48;;;;;;;18.07;12.20;;;;;;;;;;5035411;28;21012;-56
2021/08/20 09:39:25;;;;;;;14.17;12.53;;;;;;;;;;5035529;28;20501;-55
2021/08/20 09:42:11;;;;;;;13.60;12.40;;;;;;;;;;5035477;28;20510;-54
2021/08/20 09:44:39;;;;;;;20.67;11.13;;;;;;;;;;5035536;28;20431;-54
2021/08/20 09:47:08;;;;;;;13.53;12.00;;;;;;;;;;5035367;28;20818;-54
2021/08/20 09:49:50;;;;;;;12.20;11.00;;;;;;;;;;5035465;28;20480;-55
2021/08/20 09:52:26;;;;;;;12.90;11.70;;;;;;;;;;5035002;28;20440;-55
2021/08/20 09:54:53;;;;;;;12.17;11.10;;;;;;;;;;5034923;28;20424;-56
2021/08/20 09:57:21;;;;;;;12.20;10.90;;;;;;;;;;5035321;28;20442;-55
2021/08/20 09:59:48;;;;;;;11.33;10.20;;;;;;;;;;5035129;28;20458;-56
2021/08/20 10:02:20;;;;;;;10.60;9.60;;;;;;;;;;5034695;28;21006;-54
2021/08/20 10:04:48;;;;;;;11.37;10.27;;;;;;;;;;5034674;28;20528;-56
2021/08/20 10:07:18;;;;;;;11.87;10.47;;;;;;;;;;5035257;28;20479;-54
2021/08/20 10:09:46;;;;;;;11.30;10.20;;;;;;;;;;5034498;28;21071;-56
2021/08/20 10:12:18;;;;;;;10.97;9.50;;;;;;;;;;5035034;28;20444;-56
2021/08/20 10:14:46;;;;;;;12.27;11.07;;;;;;;;;;5034804;28;20912;-56
2021/08/20 10:17:16;;;;;;;12.20;11.00;;;;;;;;;;5034965;28;20530;-56
2021/08/20 10:19:44;;;;;;;12.10;10.90;;;;;;;;;;5034746;28;20449;-56
2021/08/20 10:22:12;;;;;;;12.00;10.90;;;;;;;;;;5034717;28;20451;-55
2021/08/20 10:24:39;;;;;;;12.40;11.20;;;;;;;;;;5034041;28;20462;-55
2021/08/20 10:27:09;;;;;;;11.53;10.40;;;;;;;;;;5034692;28;20447;-55
2021/08/20 10:29:39;;;;;;;11.90;10.10;;;;;;;;;;5034663;28;20487;-55
2021/08/20 10:32:07;;;;;;;10.47;9.23;;;;;;;;;;5034534;28;20932;-53
2021/08/20 10:34:40;;;;;;;11.20;10.10;;;;;;;;;;5034737;28;20459;-55
2021/08/20 10:37:09;;;;;;;10.10;9.17;;;;;;;;;;5034907;28;20459;-55
2021/08/20 10:39:37;;;;;;;8.87;7.90;;;;;;;;;;5035204;28;20500;-55
2021/08/20 10:42:06;;;;;;;8.90;7.97;;;;;;;;;;5034729;28;20965;-53
2021/08/20 10:44:41;;;;;;;9.53;7.93;;;;;;;;;;5034425;28;20952;-55
2021/08/20 10:47:10;;;;;;;9.87;7.83;;;;;;;;;;5034349;28;20498;-55
2021/08/20 10:49:45;;;;;;;9.33;7.67;;;;;;;;;;5034431;28;20666;-54
2021/08/20 10:52:39;;;;;;;8.50;7.70;;;;;;;;;;5033936;28;20455;-55
2021/08/20 10:55:21;;;;;;;10.50;8.13;;;;;;;;;;5033943;28;20994;-54
2021/08/20 10:58:12;;;;;;;8.03;7.20;;;;;;;;;;5033737;28;20850;-54
2021/08/20 11:00:44;;;;;;;6.67;6.07;;;;;;;;;;5033849;28;20463;-55
2021/08/20 11:03:12;;;;;;;7.40;5.80;;;;;;;;;;5034152;28;20431;-54
2021/08/20 11:05:47;;;;;;;6.73;6.00;;;;;;;;;;5034259;28;20609;-54
2021/08/20 11:08:37;;;;;;;7.57;6.20;;;;;;;;;;5033615;28;20965;-54
2021/08/20 11:11:05;;;;;;;6.77;6.00;;;;;;;;;;5033537;28;20475;-54
2021/08/20 11:13:34;;;;;;;7.90;6.20;;;;;;;;;;5033728;28;20485;-55
2021/08/20 11:16:02;;;;;;;10.47;6.70;;;;;;;;;;5033190;28;20522;-55
2021/08/20 11:18:44;;;;;;;7.60;6.90;;;;;;;;;;5033285;28;20456;-55
2021/08/20 11:21:12;;;;;;;8.40;7.10;;;;;;;;;;5033870;28;20456;-54
2021/08/20 11:23:39;;;;;;;7.60;6.90;;;;;;;;;;5033668;28;20817;-53
2021/08/20 11:26:06;;;;;;;8.27;7.40;;;;;;;;;;5033370;28;20483;-54
2021/08/20 11:28:36;;;;;;;7.20;6.60;;;;;;;;;;5033738;28;20444;-54
2021/08/20 11:31:04;;;;;;;10.97;8.20;;;;;;;;;;5033542;28;20451;-54
2021/08/20 11:33:32;;;;;;;12.93;7.40;;;;;;;;;;5033571;28;20447;-55
2021/08/20 11:36:00;;;;;;;8.03;7.33;;;;;;;;;;5033598;28;20466;-54
2021/08/20 11:38:30;;;;;;;8.70;7.80;;;;;;;;;;5033617;28;20523;-56
2021/08/20 11:41:02;;;;;;;8.70;7.60;;;;;;;;;;5033116;28;20921;-55
2021/08/20 11:43:29;;;;;;;8.43;7.67;;;;;;;;;;5033387;28;20505;-55
2021/08/20 11:46:08;;;;;;;9.53;7.10;;;;;;;;;;5033224;28;20979;-56
2021/08/20 11:48:45;;;;;;;8.17;6.60;;;;;;;;;;5033326;28;20530;-55
2021/08/20 11:51:13;;;;;;;7.17;6.50;;;;;;;;;;5033619;28;20508;-56
2021/08/20 11:53:43;;;;;;;6.87;6.07;;;;;;;;;;5033031;28;20470;-55
2021/08/20 11:56:11;;;;;;;7.40;6.70;;;;;;;;;;5033205;28;20469;-55
2021/08/20 11:58:38;;;;;;;8.07;7.27;;;;;;;;;;5032870;28;20931;-54
2021/08/20 12:01:07;;;;;;;6.87;5.80;;;;;;;;;;5033031;28;20514;-55
2021/08/20 12:03:35;;;;;;;6.63;6.00;;;;;;;;;;5033101;28;20447;-55
2021/08/20 12:06:09;;;;;;;5.73;5.23;;;;;;;;;;5032783;28;20984;-55
2021/08/20 12:08:36;;;;;;;7.23;6.50;;;;;;;;;;5033138;28;20498;-56
2021/08/20 12:11:04;;;;;;;7.43;5.13;;;;;;;;;;5033315;28;20452;-56
2021/08/20 12:13:32;;;;;;;6.50;5.00;;;;;;;;;;5033734;28;20501;-56
2021/08/20 12:15:59;;;;;;;8.97;6.27;;;;;;;;;;5033797;28;20980;-57
2021/08/20 12:18:28;;;;;;;6.27;5.30;;;;;;;;;;5033200;28;20499;-60
2021/08/20 12:20:56;;;;;;;7.37;5.30;;;;;;;;;;5032858;28;20499;-56
2021/08/20 12:23:24;;;;;;;5.00;4.50;;;;;;;;;;5032548;28;20445;-55
2021/08/20 12:25:52;;;;;;;4.57;4.17;;;;;;;;;;5057642;22;20492;-55
2021/08/20 12:28:20;;;;;;;6.40;4.50;;;;;;;;;;5033200;28;20429;-55
2021/08/20 12:30:49;;;;;;;4.20;3.67;;;;;;;;;;5037004;28;20484;-55
2021/08/20 12:33:16;;;;;;;4.63;4.23;;;;;;;;;;5037018;28;20833;-55
2021/08/20 12:35:54;;;;;;;5.17;4.67;;;;;;;;;;5036534;28;20466;-56
2021/08/20 12:38:22;;;;;;;5.10;4.10;;;;;;;;;;5037284;28;20509;-56
2021/08/20 12:40:50;;;;;;;4.73;4.33;;;;;;;;;;5036680;28;20442;-55
2021/08/20 12:43:36;;;;;;;5.40;4.90;;;;;;;;;;5036456;28;20938;-55
2021/08/20 12:46:11;;;;;;;8.30;5.30;;;;;;;;;;5036159;28;20525;-55
2021/08/20 12:48:39;;;;;;;4.97;4.50;;;;;;;;;;5036336;28;20420;-56
2021/08/20 12:51:08;;;;;;;5.50;5.00;;;;;;;;;;5036014;28;20536;-55
2021/08/20 12:53:36;;;;;;;6.53;4.67;;;;;;;;;;5036461;28;20522;-56
2021/08/20 12:56:04;;;;;;;6.37;5.57;;;;;;;;;;5036145;28;20520;-56
2021/08/20 12:58:34;;;;;;;5.90;5.20;;;;;;;;;;5036127;28;20457;-55
2021/08/20 13:01:02;;;;;;;6.43;5.83;;;;;;;;;;5036007;28;20437;-56
2021/08/20 13:03:29;;;;;;;6.40;5.80;;;;;;;;;;5036159;28;20450;-55
2021/08/20 13:05:57;;;;;;;5.70;5.30;;;;;;;;;;5035668;28;20968;-56
2021/08/20 13:08:27;;;;;;;5.43;4.93;;;;;;;;;;5035763;28;20867;-56
2021/08/20 13:10:55;;;;;;;7.30;5.50;;;;;;;;;;5036062;28;20916;-55
2021/08/20 13:13:22;;;;;;;7.83;5.63;;;;;;;;;;5036689;28;20502;-55
2021/08/20 13:15:50;;;;;;;8.37;6.70;;;;;;;;;;5035748;28;20479;-56
2021/08/20 13:18:17;;;;;;;7.43;6.10;;;;;;;;;;5035653;28;20459;-56
2021/08/20 13:20:45;;;;;;;6.77;6.10;;;;;;;;;;5035832;28;20925;-55
2021/08/20 13:23:12;;;;;;;7.20;6.50;;;;;;;;;;5035702;28;20445;-56
2021/08/20 13:25:41;;;;;;;6.00;5.40;;;;;;;;;;5035166;28;20452;-55
2021/08/20 13:28:10;;;;;;;5.80;5.03;;;;;;;;;;5035940;28;20511;-54
2021/08/20 13:30:37;;;;;;;6.50;5.70;;;;;;;;;;5035037;28;21002;-55
2021/08/20 13:33:05;;;;;;;6.30;5.80;;;;;;;;;;5035000;28;20823;-56
2021/08/20 13:35:32;;;;;;;5.50;4.93;;;;;;;;;;5035041;28;20940;-55
2021/08/20 13:37:59;;;;;;;6.33;5.73;;;;;;;;;;5035524;28;20803;-55
2021/08/20 13:40:29;;;;;;;6.30;5.70;;;;;;;;;;5034906;28;20517;-55
2021/08/20 13:42:57;;;;;;;7.07;6.47;;;;;;;;;;5035356;28;20493;-56
2021/08/20 13:45:25;;;;;;;5.80;5.30;;;;;;;;;;5035287;28;20459;-55
2021/08/20 13:47:52;;;;;;;6.53;5.93;;;;;;;;;;5035421;28;20444;-56
2021/08/20 13:50:20;;;;;;;6.23;5.63;;;;;;;;;;5035363;28;20479;-56
2021/08/20 13:52:47;;;;;;;5.57;5.07;;;;;;;;;;5034978;28;20447;-56
2021/08/20 13:55:15;;;;;;;8.33;6.40;;;;;;;;;;5035301;28;20453;-56
2021/08/20 13:57:42;;;;;;;6.40;5.80;;;;;;;;;;5035275;28;20992;-56
2021/08/20 14:00:11;;;;;;;7.20;6.60;;;;;;;;;;5035538;28;20496;-55
2021/08/20 14:02:38;;;;;;;8.40;5.93;;;;;;;;;;5034845;28;20449;-54
2021/08/20 14:05:06;;;;;;;7.60;4.67;;;;;;;;;;5034928;28;20507;-55
2021/08/20 14:07:34;;;;;;;4.70;4.30;;;;;;;;;;5034431;28;20527;-54
2021/08/20 14:10:01;;;;;;;5.63;5.10;;;;;;;;;;5034589;28;20481;-55
2021/08/20 14:12:28;;;;;;;4.30;3.87;;;;;;;;;;5034814;28;20455;-55
2021/08/20 14:14:55;;;;;;;3.97;3.67;;;;;;;;;;5034534;28;20994;-55
2021/08/20 14:17:24;;;;;;;5.23;3.50;;;;;;;;;;5034455;28;20463;-55
2021/08/20 14:19:51;;;;;;;4.10;3.80;;;;;;;;;;5035105;28;20868;-55
2021/08/20 14:22:18;;;;;;;4.70;3.50;;;;;;;;;;5035087;28;20871;-55
2021/08/20 14:24:46;;;;;;;4.27;3.87;;;;;;;;;;5034525;28;20990;-56
2021/08/20 14:27:13;;;;;;;3.20;2.90;;;;;;;;;;5034187;28;20594;-56
2021/08/20 14:29:43;;;;;;;4.10;3.37;;;;;;;;;;5034845;28;20483;-56
2021/08/20 14:32:11;;;;;;;3.97;3.40;;;;;;;;;;5034610;28;20431;-55